Anchor, Mississippi
Current Conditions -  °F | °C
As of 9:35 AM on Friday 24 Oct 2014 (Local Time) from KSTF Reporting Station
Clear Clear  
Wind Chill: 55°   Ceiling: Unl
Heat Index: 55°   Visibility: 10mi
Dew Point: 50°   Wind: 3mph
Humidity: 82%   Direction: 330°NNW
Pressure: 30.14"   Gusts: NA
Location:  33.7962°N, 89.0553°W
Report Text: KSTF 241435Z AUTO 33003KT 10SM CLR 13/10 A3014 RMK AO2
Loading
Personal Weather Stations






























Interactive Weather Map
Tropical Storm Tracking
New forecast layout! Learn more

10-Day Weather Forecast

Advertisements
Track Severe Weather on mobile